sensor_id;sensor_type;location;lat;lon;timestamp;P1;durP1;ratioP1;P2;durP2;ratioP2
56599;SDS011;51832;48.152;11.530;2023-04-06T00:03:12;7.70;;;5.47;;
56599;SDS011;51832;48.152;11.530;2023-04-06T00:08:12;7.38;;;5.30;;
56599;SDS011;51832;48.152;11.530;2023-04-06T00:13:13;7.88;;;5.15;;
56599;SDS011;51832;48.152;11.530;2023-04-06T00:18:14;9.05;;;5.85;;
56599;SDS011;51832;48.152;11.530;2023-04-06T00:23:15;6.15;;;5.30;;
56599;SDS011;51832;48.152;11.530;2023-04-06T00:28:15;9.55;;;5.97;;
56599;SDS011;51832;48.152;11.530;2023-04-06T00:33:16;7.80;;;5.50;;
56599;SDS011;51832;48.152;11.530;2023-04-06T00:38:16;7.80;;;5.80;;
56599;SDS011;51832;48.152;11.530;2023-04-06T00:43:17;8.20;;;5.88;;
56599;SDS011;51832;48.152;11.530;2023-04-06T00:48:17;8.93;;;6.22;;
56599;SDS011;51832;48.152;11.530;2023-04-06T00:53:18;10.23;;;6.43;;
56599;SDS011;51832;48.152;11.530;2023-04-06T00:58:18;9.55;;;6.35;;
56599;SDS011;51832;48.152;11.530;2023-04-06T01:03:19;8.57;;;6.03;;
56599;SDS011;51832;48.152;11.530;2023-04-06T01:08:20;9.88;;;6.60;;
56599;SDS011;51832;48.152;11.530;2023-04-06T01:13:20;10.85;;;6.97;;
56599;SDS011;51832;48.152;11.530;2023-04-06T01:18:27;12.25;;;7.07;;
56599;SDS011;51832;48.152;11.530;2023-04-06T01:23:28;10.68;;;6.88;;
56599;SDS011;51832;48.152;11.530;2023-04-06T01:28:28;9.55;;;6.80;;
56599;SDS011;51832;48.152;11.530;2023-04-06T01:33:29;8.55;;;6.07;;
56599;SDS011;51832;48.152;11.530;2023-04-06T01:38:29;8.27;;;5.60;;
56599;SDS011;51832;48.152;11.530;2023-04-06T01:43:30;8.52;;;5.45;;
56599;SDS011;51832;48.152;11.530;2023-04-06T01:48:31;10.25;;;5.60;;
56599;SDS011;51832;48.152;11.530;2023-04-06T01:53:31;7.38;;;5.57;;
56599;SDS011;51832;48.152;11.530;2023-04-06T01:58:32;6.68;;;5.25;;
56599;SDS011;51832;48.152;11.530;2023-04-06T02:03:32;8.35;;;5.97;;
56599;SDS011;51832;48.152;11.530;2023-04-06T02:08:33;8.82;;;5.65;;
56599;SDS011;51832;48.152;11.530;2023-04-06T02:13:33;7.75;;;5.15;;
56599;SDS011;51832;48.152;11.530;2023-04-06T02:18:34;11.02;;;5.95;;
56599;SDS011;51832;48.152;11.530;2023-04-06T02:23:34;9.68;;;5.72;;
56599;SDS011;51832;48.152;11.530;2023-04-06T02:28:34;8.10;;;5.13;;
56599;SDS011;51832;48.152;11.530;2023-04-06T02:33:35;6.25;;;5.47;;
56599;SDS011;51832;48.152;11.530;2023-04-06T02:38:35;8.27;;;5.60;;
56599;SDS011;51832;48.152;11.530;2023-04-06T02:43:36;6.65;;;5.57;;
56599;SDS011;51832;48.152;11.530;2023-04-06T02:48:36;9.55;;;5.60;;
56599;SDS011;51832;48.152;11.530;2023-04-06T02:53:37;7.82;;;5.88;;
56599;SDS011;51832;48.152;11.530;2023-04-06T02:58:37;7.00;;;5.25;;
56599;SDS011;51832;48.152;11.530;2023-04-06T03:03:38;8.95;;;5.78;;
56599;SDS011;51832;48.152;11.530;2023-04-06T03:08:38;11.00;;;6.50;;
56599;SDS011;51832;48.152;11.530;2023-04-06T03:13:39;9.68;;;6.07;;
56599;SDS011;51832;48.152;11.530;2023-04-06T03:18:39;8.98;;;6.32;;
56599;SDS011;51832;48.152;11.530;2023-04-06T03:23:40;7.78;;;5.63;;
56599;SDS011;51832;48.152;11.530;2023-04-06T03:28:40;9.52;;;5.93;;
56599;SDS011;51832;48.152;11.530;2023-04-06T03:33:41;12.30;;;6.13;;
56599;SDS011;51832;48.152;11.530;2023-04-06T03:38:41;11.02;;;7.15;;
56599;SDS011;51832;48.152;11.530;2023-04-06T03:43:42;8.95;;;5.78;;
56599;SDS011;51832;48.152;11.530;2023-04-06T03:48:42;8.80;;;6.10;;
56599;SDS011;51832;48.152;11.530;2023-04-06T03:53:42;8.82;;;5.55;;
56599;SDS011;51832;48.152;11.530;2023-04-06T03:58:43;10.75;;;6.88;;
56599;SDS011;51832;48.152;11.530;2023-04-06T04:03:45;8.75;;;6.13;;
56599;SDS011;51832;48.152;11.530;2023-04-06T04:08:45;9.20;;;6.45;;
56599;SDS011;51832;48.152;11.530;2023-04-06T04:13:46;7.43;;;5.63;;
56599;SDS011;51832;48.152;11.530;2023-04-06T04:18:47;10.02;;;6.30;;
56599;SDS011;51832;48.152;11.530;2023-04-06T04:23:48;9.00;;;6.38;;
56599;SDS011;51832;48.152;11.530;2023-04-06T04:28:49;8.77;;;6.22;;
56599;SDS011;51832;48.152;11.530;2023-04-06T04:33:50;7.53;;;6.20;;
56599;SDS011;51832;48.152;11.530;2023-04-06T04:38:52;9.05;;;6.63;;
56599;SDS011;51832;48.152;11.530;2023-04-06T04:43:52;8.93;;;6.53;;
56599;SDS011;51832;48.152;11.530;2023-04-06T04:48:53;8.48;;;5.72;;
56599;SDS011;51832;48.152;11.530;2023-04-06T04:53:53;10.05;;;6.97;;
56599;SDS011;51832;48.152;11.530;2023-04-06T04:58:53;10.35;;;7.10;;
56599;SDS011;51832;48.152;11.530;2023-04-06T05:03:54;15.30;;;7.10;;
56599;SDS011;51832;48.152;11.530;2023-04-06T05:08:54;9.88;;;6.97;;
56599;SDS011;51832;48.152;11.530;2023-04-06T05:13:55;10.02;;;6.43;;
56599;SDS011;51832;48.152;11.530;2023-04-06T05:18:56;11.73;;;7.47;;
56599;SDS011;51832;48.152;11.530;2023-04-06T05:23:56;12.50;;;7.72;;
56599;SDS011;51832;48.152;11.530;2023-04-06T05:28:57;8.85;;;7.18;;
56599;SDS011;51832;48.152;11.530;2023-04-06T05:33:58;11.85;;;7.68;;
56599;SDS011;51832;48.152;11.530;2023-04-06T05:38:59;12.35;;;7.13;;
56599;SDS011;51832;48.152;11.530;2023-04-06T05:43:59;12.25;;;8.02;;
56599;SDS011;51832;48.152;11.530;2023-04-06T05:49:00;12.80;;;7.22;;
56599;SDS011;51832;48.152;11.530;2023-04-06T05:54:00;12.27;;;7.78;;
56599;SDS011;51832;48.152;11.530;2023-04-06T05:59:01;10.27;;;7.25;;
56599;SDS011;51832;48.152;11.530;2023-04-06T06:04:01;13.57;;;7.47;;
56599;SDS011;51832;48.152;11.530;2023-04-06T06:09:02;13.75;;;7.15;;
56599;SDS011;51832;48.152;11.530;2023-04-06T06:14:03;11.02;;;7.45;;
56599;SDS011;51832;48.152;11.530;2023-04-06T06:19:04;13.05;;;7.05;;
56599;SDS011;51832;48.152;11.530;2023-04-06T06:24:04;9.43;;;7.28;;
56599;SDS011;51832;48.152;11.530;2023-04-06T06:29:06;11.82;;;7.13;;
56599;SDS011;51832;48.152;11.530;2023-04-06T06:34:07;12.57;;;7.20;;
56599;SDS011;51832;48.152;11.530;2023-04-06T06:39:07;9.43;;;6.63;;
56599;SDS011;51832;48.152;11.530;2023-04-06T06:44:08;11.57;;;8.02;;
56599;SDS011;51832;48.152;11.530;2023-04-06T06:49:08;13.85;;;8.38;;
56599;SDS011;51832;48.152;11.530;2023-04-06T06:54:08;13.18;;;7.97;;
56599;SDS011;51832;48.152;11.530;2023-04-06T06:59:09;11.02;;;7.57;;
56599;SDS011;51832;48.152;11.530;2023-04-06T07:04:09;8.25;;;6.80;;
56599;SDS011;51832;48.152;11.530;2023-04-06T07:09:10;11.07;;;7.38;;
56599;SDS011;51832;48.152;11.530;2023-04-06T07:14:11;10.82;;;7.30;;
56599;SDS011;51832;48.152;11.530;2023-04-06T07:19:11;13.15;;;6.65;;
56599;SDS011;51832;48.152;11.530;2023-04-06T07:24:12;9.00;;;6.90;;
56599;SDS011;51832;48.152;11.530;2023-04-06T07:29:12;9.07;;;6.80;;
56599;SDS011;51832;48.152;11.530;2023-04-06T07:34:13;10.80;;;7.22;;
56599;SDS011;51832;48.152;11.530;2023-04-06T07:39:13;10.70;;;7.68;;
56599;SDS011;51832;48.152;11.530;2023-04-06T07:44:14;8.63;;;6.40;;
56599;SDS011;51832;48.152;11.530;2023-04-06T07:49:15;10.55;;;6.75;;
56599;SDS011;51832;48.152;11.530;2023-04-06T07:54:15;10.93;;;7.28;;
56599;SDS011;51832;48.152;11.530;2023-04-06T07:59:15;9.98;;;7.10;;
56599;SDS011;51832;48.152;11.530;2023-04-06T08:04:16;9.45;;;6.40;;
56599;SDS011;51832;48.152;11.530;2023-04-06T08:09:16;7.53;;;5.95;;
56599;SDS011;51832;48.152;11.530;2023-04-06T08:14:17;9.88;;;6.65;;
56599;SDS011;51832;48.152;11.530;2023-04-06T08:19:17;8.70;;;6.95;;
56599;SDS011;51832;48.152;11.530;2023-04-06T08:24:18;10.70;;;7.35;;
56599;SDS011;51832;48.152;11.530;2023-04-06T08:29:19;11.00;;;6.88;;
56599;SDS011;51832;48.152;11.530;2023-04-06T08:34:20;10.05;;;6.57;;
56599;SDS011;51832;48.152;11.530;2023-04-06T08:39:21;10.77;;;7.25;;
56599;SDS011;51832;48.152;11.530;2023-04-06T08:44:25;10.18;;;7.35;;
56599;SDS011;51832;48.152;11.530;2023-04-06T08:49:26;8.30;;;6.82;;
56599;SDS011;51832;48.152;11.530;2023-04-06T08:54:28;10.70;;;6.50;;
56599;SDS011;51832;48.152;11.530;2023-04-06T08:59:31;10.82;;;6.80;;
56599;SDS011;51832;48.152;11.530;2023-04-06T09:04:34;10.00;;;6.55;;
56599;SDS011;51832;48.152;11.530;2023-04-06T09:09:36;10.48;;;7.53;;
56599;SDS011;51832;48.152;11.530;2023-04-06T09:14:37;9.48;;;6.88;;
56599;SDS011;51832;48.152;11.530;2023-04-06T09:19:48;10.43;;;7.30;;
56599;SDS011;51832;48.152;11.530;2023-04-06T09:24:52;7.95;;;6.55;;
56599;SDS011;51832;48.152;11.530;2023-04-06T09:30:01;10.40;;;7.25;;
56599;SDS011;51832;48.152;11.530;2023-04-06T09:35:07;9.32;;;7.18;;
56599;SDS011;51832;48.152;11.530;2023-04-06T09:40:08;11.73;;;7.63;;
56599;SDS011;51832;48.152;11.530;2023-04-06T09:45:09;11.95;;;7.53;;
56599;SDS011;51832;48.152;11.530;2023-04-06T09:50:13;11.48;;;7.47;;
56599;SDS011;51832;48.152;11.530;2023-04-06T09:55:18;10.80;;;7.60;;
56599;SDS011;51832;48.152;11.530;2023-04-06T10:00:25;9.30;;;7.10;;
56599;SDS011;51832;48.152;11.530;2023-04-06T10:10:46;11.68;;;7.53;;
56599;SDS011;51832;48.152;11.530;2023-04-06T10:15:47;11.60;;;7.47;;
56599;SDS011;51832;48.152;11.530;2023-04-06T10:20:56;10.05;;;7.10;;
56599;SDS011;51832;48.152;11.530;2023-04-06T10:26:01;11.70;;;7.72;;
56599;SDS011;51832;48.152;11.530;2023-04-06T10:31:06;10.07;;;6.90;;
56599;SDS011;51832;48.152;11.530;2023-04-06T10:36:13;11.65;;;7.65;;
56599;SDS011;51832;48.152;11.530;2023-04-06T10:41:16;9.43;;;7.30;;
56599;SDS011;51832;48.152;11.530;2023-04-06T10:46:17;9.40;;;7.50;;
56599;SDS011;51832;48.152;11.530;2023-04-06T10:51:26;11.93;;;7.70;;
56599;SDS011;51832;48.152;11.530;2023-04-06T10:56:27;12.23;;;7.75;;
56599;SDS011;51832;48.152;11.530;2023-04-06T11:01:30;10.27;;;7.30;;
56599;SDS011;51832;48.152;11.530;2023-04-06T11:06:30;12.05;;;6.45;;
56599;SDS011;51832;48.152;11.530;2023-04-06T11:11:32;10.00;;;6.78;;
56599;SDS011;51832;48.152;11.530;2023-04-06T11:16:32;11.45;;;8.35;;
56599;SDS011;51832;48.152;11.530;2023-04-06T11:21:34;10.85;;;7.43;;
56599;SDS011;51832;48.152;11.530;2023-04-06T11:31:54;9.05;;;7.20;;
56599;SDS011;51832;48.152;11.530;2023-04-06T11:37:06;11.02;;;7.00;;
56599;SDS011;51832;48.152;11.530;2023-04-06T11:42:08;10.05;;;7.30;;
56599;SDS011;51832;48.152;11.530;2023-04-06T11:47:10;11.68;;;7.70;;
56599;SDS011;51832;48.152;11.530;2023-04-06T11:52:14;12.40;;;8.10;;
56599;SDS011;51832;48.152;11.530;2023-04-06T11:57:20;9.20;;;7.10;;
56599;SDS011;51832;48.152;11.530;2023-04-06T12:02:25;9.25;;;6.47;;
56599;SDS011;51832;48.152;11.530;2023-04-06T12:07:26;9.55;;;7.05;;
56599;SDS011;51832;48.152;11.530;2023-04-06T12:12:26;6.60;;;5.43;;
56599;SDS011;51832;48.152;11.530;2023-04-06T12:17:26;7.60;;;5.80;;
56599;SDS011;51832;48.152;11.530;2023-04-06T12:22:27;8.75;;;5.80;;
56599;SDS011;51832;48.152;11.530;2023-04-06T12:27:27;10.10;;;6.55;;
56599;SDS011;51832;48.152;11.530;2023-04-06T12:32:28;7.47;;;6.28;;
56599;SDS011;51832;48.152;11.530;2023-04-06T12:37:28;9.45;;;6.40;;
56599;SDS011;51832;48.152;11.530;2023-04-06T12:42:28;7.15;;;6.07;;
56599;SDS011;51832;48.152;11.530;2023-04-06T12:47:29;8.38;;;6.10;;
56599;SDS011;51832;48.152;11.530;2023-04-06T12:52:29;10.25;;;6.07;;
56599;SDS011;51832;48.152;11.530;2023-04-06T12:57:31;8.75;;;5.93;;
56599;SDS011;51832;48.152;11.530;2023-04-06T13:02:32;9.02;;;5.68;;
56599;SDS011;51832;48.152;11.530;2023-04-06T13:07:32;8.80;;;6.72;;
56599;SDS011;51832;48.152;11.530;2023-04-06T13:12:33;6.93;;;5.70;;
56599;SDS011;51832;48.152;11.530;2023-04-06T13:17:33;7.13;;;5.88;;
56599;SDS011;51832;48.152;11.530;2023-04-06T13:22:33;8.07;;;5.97;;
56599;SDS011;51832;48.152;11.530;2023-04-06T13:27:34;9.75;;;5.95;;
56599;SDS011;51832;48.152;11.530;2023-04-06T13:32:35;10.45;;;6.25;;
56599;SDS011;51832;48.152;11.530;2023-04-06T13:37:36;8.18;;;6.15;;
56599;SDS011;51832;48.152;11.530;2023-04-06T13:42:36;7.47;;;6.00;;
56599;SDS011;51832;48.152;11.530;2023-04-06T13:47:39;8.65;;;5.45;;
56599;SDS011;51832;48.152;11.530;2023-04-06T13:52:40;6.70;;;5.28;;
56599;SDS011;51832;48.152;11.530;2023-04-06T13:57:41;8.65;;;6.43;;
56599;SDS011;51832;48.152;11.530;2023-04-06T14:02:41;8.30;;;6.10;;
56599;SDS011;51832;48.152;11.530;2023-04-06T14:07:42;6.63;;;5.25;;
56599;SDS011;51832;48.152;11.530;2023-04-06T14:12:45;6.13;;;5.10;;
56599;SDS011;51832;48.152;11.530;2023-04-06T14:22:46;8.23;;;5.57;;
56599;SDS011;51832;48.152;11.530;2023-04-06T14:27:46;7.88;;;4.82;;
56599;SDS011;51832;48.152;11.530;2023-04-06T14:32:46;5.50;;;5.00;;
56599;SDS011;51832;48.152;11.530;2023-04-06T14:37:47;6.75;;;5.18;;
56599;SDS011;51832;48.152;11.530;2023-04-06T14:42:47;7.67;;;5.57;;
56599;SDS011;51832;48.152;11.530;2023-04-06T14:47:48;6.88;;;5.32;;
56599;SDS011;51832;48.152;11.530;2023-04-06T14:52:48;6.85;;;5.05;;
56599;SDS011;51832;48.152;11.530;2023-04-06T14:57:49;5.65;;;5.03;;
56599;SDS011;51832;48.152;11.530;2023-04-06T15:02:50;6.45;;;4.90;;
56599;SDS011;51832;48.152;11.530;2023-04-06T15:07:50;6.35;;;4.90;;
56599;SDS011;51832;48.152;11.530;2023-04-06T15:12:50;5.22;;;4.72;;
56599;SDS011;51832;48.152;11.530;2023-04-06T15:17:51;5.03;;;4.53;;
56599;SDS011;51832;48.152;11.530;2023-04-06T15:22:51;5.13;;;4.30;;
56599;SDS011;51832;48.152;11.530;2023-04-06T15:27:53;4.07;;;3.58;;
56599;SDS011;51832;48.152;11.530;2023-04-06T15:32:57;6.28;;;3.67;;
56599;SDS011;51832;48.152;11.530;2023-04-06T15:38:03;4.57;;;4.05;;
56599;SDS011;51832;48.152;11.530;2023-04-06T15:43:04;5.57;;;3.80;;
56599;SDS011;51832;48.152;11.530;2023-04-06T15:48:04;5.57;;;4.47;;
56599;SDS011;51832;48.152;11.530;2023-04-06T15:53:05;4.60;;;4.10;;
56599;SDS011;51832;48.152;11.530;2023-04-06T15:58:06;4.70;;;3.72;;
56599;SDS011;51832;48.152;11.530;2023-04-06T16:03:06;5.95;;;4.20;;
56599;SDS011;51832;48.152;11.530;2023-04-06T16:08:07;5.47;;;4.40;;
56599;SDS011;51832;48.152;11.530;2023-04-06T16:13:07;5.37;;;4.03;;
56599;SDS011;51832;48.152;11.530;2023-04-06T16:18:08;4.78;;;4.25;;
56599;SDS011;51832;48.152;11.530;2023-04-06T16:23:08;5.23;;;4.63;;
56599;SDS011;51832;48.152;11.530;2023-04-06T16:28:09;6.60;;;5.85;;
56599;SDS011;51832;48.152;11.530;2023-04-06T16:33:10;6.35;;;5.22;;
56599;SDS011;51832;48.152;11.530;2023-04-06T16:38:11;5.85;;;5.30;;
56599;SDS011;51832;48.152;11.530;2023-04-06T16:43:12;5.45;;;4.95;;
56599;SDS011;51832;48.152;11.530;2023-04-06T16:48:13;6.10;;;4.90;;
56599;SDS011;51832;48.152;11.530;2023-04-06T16:53:13;5.57;;;4.97;;
56599;SDS011;51832;48.152;11.530;2023-04-06T16:58:13;11.27;;;4.83;;
56599;SDS011;51832;48.152;11.530;2023-04-06T17:03:14;5.30;;;4.68;;
56599;SDS011;51832;48.152;11.530;2023-04-06T17:08:14;6.87;;;5.00;;
56599;SDS011;51832;48.152;11.530;2023-04-06T17:13:15;5.13;;;4.63;;
56599;SDS011;51832;48.152;11.530;2023-04-06T17:18:15;6.75;;;5.55;;
56599;SDS011;51832;48.152;11.530;2023-04-06T17:23:15;6.80;;;5.60;;
56599;SDS011;51832;48.152;11.530;2023-04-06T17:28:16;8.60;;;7.03;;
56599;SDS011;51832;48.152;11.530;2023-04-06T17:33:17;14.70;;;9.98;;
56599;SDS011;51832;48.152;11.530;2023-04-06T17:38:17;11.45;;;8.85;;
56599;SDS011;51832;48.152;11.530;2023-04-06T17:43:18;7.20;;;5.80;;
56599;SDS011;51832;48.152;11.530;2023-04-06T17:48:19;5.72;;;5.18;;
56599;SDS011;51832;48.152;11.530;2023-04-06T17:53:19;5.28;;;4.78;;
56599;SDS011;51832;48.152;11.530;2023-04-06T17:58:20;8.30;;;5.90;;
56599;SDS011;51832;48.152;11.530;2023-04-06T18:03:21;9.05;;;6.20;;
56599;SDS011;51832;48.152;11.530;2023-04-06T18:08:21;11.13;;;7.17;;
56599;SDS011;51832;48.152;11.530;2023-04-06T18:13:22;10.27;;;8.57;;
56599;SDS011;51832;48.152;11.530;2023-04-06T18:18:22;12.90;;;8.27;;
56599;SDS011;51832;48.152;11.530;2023-04-06T18:23:22;12.60;;;8.37;;
56599;SDS011;51832;48.152;11.530;2023-04-06T18:28:23;10.37;;;8.13;;
56599;SDS011;51832;48.152;11.530;2023-04-06T18:33:23;11.23;;;7.78;;
56599;SDS011;51832;48.152;11.530;2023-04-06T18:38:26;11.48;;;8.10;;
56599;SDS011;51832;48.152;11.530;2023-04-06T18:43:27;10.70;;;8.35;;
56599;SDS011;51832;48.152;11.530;2023-04-06T18:48:27;13.48;;;9.55;;
56599;SDS011;51832;48.152;11.530;2023-04-06T18:53:28;12.55;;;9.98;;
56599;SDS011;51832;48.152;11.530;2023-04-06T18:58:28;14.13;;;10.50;;
56599;SDS011;51832;48.152;11.530;2023-04-06T19:03:29;13.35;;;9.35;;
56599;SDS011;51832;48.152;11.530;2023-04-06T19:08:29;17.77;;;9.40;;
56599;SDS011;51832;48.152;11.530;2023-04-06T19:13:30;13.65;;;9.63;;
56599;SDS011;51832;48.152;11.530;2023-04-06T19:18:30;15.40;;;9.90;;
56599;SDS011;51832;48.152;11.530;2023-04-06T19:23:31;13.70;;;10.00;;
56599;SDS011;51832;48.152;11.530;2023-04-06T19:28:32;15.27;;;10.98;;
56599;SDS011;51832;48.152;11.530;2023-04-06T19:33:34;17.58;;;10.30;;
56599;SDS011;51832;48.152;11.530;2023-04-06T19:38:35;14.00;;;9.88;;
56599;SDS011;51832;48.152;11.530;2023-04-06T19:43:35;12.48;;;8.90;;
56599;SDS011;51832;48.152;11.530;2023-04-06T19:48:36;11.57;;;8.50;;
56599;SDS011;51832;48.152;11.530;2023-04-06T19:53:36;11.32;;;9.00;;
56599;SDS011;51832;48.152;11.530;2023-04-06T19:58:37;14.48;;;9.88;;
56599;SDS011;51832;48.152;11.530;2023-04-06T20:03:38;14.45;;;9.18;;
56599;SDS011;51832;48.152;11.530;2023-04-06T20:08:39;15.43;;;10.00;;
56599;SDS011;51832;48.152;11.530;2023-04-06T20:13:39;14.15;;;9.00;;
56599;SDS011;51832;48.152;11.530;2023-04-06T20:18:39;13.43;;;9.50;;
56599;SDS011;51832;48.152;11.530;2023-04-06T20:23:40;15.52;;;9.43;;
56599;SDS011;51832;48.152;11.530;2023-04-06T20:28:40;15.18;;;10.07;;
56599;SDS011;51832;48.152;11.530;2023-04-06T20:33:41;15.10;;;9.30;;
56599;SDS011;51832;48.152;11.530;2023-04-06T20:38:41;11.90;;;9.07;;
56599;SDS011;51832;48.152;11.530;2023-04-06T20:43:42;14.15;;;9.98;;
56599;SDS011;51832;48.152;11.530;2023-04-06T20:48:42;15.98;;;9.48;;
56599;SDS011;51832;48.152;11.530;2023-04-06T20:53:43;14.77;;;9.45;;
56599;SDS011;51832;48.152;11.530;2023-04-06T20:58:43;14.20;;;8.95;;
56599;SDS011;51832;48.152;11.530;2023-04-06T21:03:44;13.90;;;9.10;;
56599;SDS011;51832;48.152;11.530;2023-04-06T21:08:44;17.02;;;9.32;;
56599;SDS011;51832;48.152;11.530;2023-04-06T21:13:45;15.20;;;8.48;;
56599;SDS011;51832;48.152;11.530;2023-04-06T21:18:46;17.60;;;8.80;;
56599;SDS011;51832;48.152;11.530;2023-04-06T21:23:47;13.38;;;8.35;;
56599;SDS011;51832;48.152;11.530;2023-04-06T21:28:51;14.52;;;8.30;;
56599;SDS011;51832;48.152;11.530;2023-04-06T21:33:51;15.10;;;9.05;;
56599;SDS011;51832;48.152;11.530;2023-04-06T21:38:51;12.43;;;7.78;;
56599;SDS011;51832;48.152;11.530;2023-04-06T21:43:52;13.07;;;7.95;;
56599;SDS011;51832;48.152;11.530;2023-04-06T21:48:52;11.65;;;7.72;;
56599;SDS011;51832;48.152;11.530;2023-04-06T21:53:53;11.57;;;8.20;;
56599;SDS011;51832;48.152;11.530;2023-04-06T21:58:55;13.20;;;7.72;;
56599;SDS011;51832;48.152;11.530;2023-04-06T22:03:55;10.77;;;7.37;;
56599;SDS011;51832;48.152;11.530;2023-04-06T22:08:56;12.70;;;7.00;;
56599;SDS011;51832;48.152;11.530;2023-04-06T22:13:57;12.73;;;6.93;;
56599;SDS011;51832;48.152;11.530;2023-04-06T22:18:57;11.80;;;6.97;;
56599;SDS011;51832;48.152;11.530;2023-04-06T22:23:57;11.95;;;7.82;;
56599;SDS011;51832;48.152;11.530;2023-04-06T22:28:58;10.32;;;6.40;;
56599;SDS011;51832;48.152;11.530;2023-04-06T22:33:58;10.10;;;6.82;;
56599;SDS011;51832;48.152;11.530;2023-04-06T22:38:59;10.60;;;6.25;;
56599;SDS011;51832;48.152;11.530;2023-04-06T22:43:59;10.93;;;5.95;;
56599;SDS011;51832;48.152;11.530;2023-04-06T22:49:01;9.68;;;6.10;;
56599;SDS011;51832;48.152;11.530;2023-04-06T22:54:02;10.52;;;6.72;;
56599;SDS011;51832;48.152;11.530;2023-04-06T22:59:03;9.80;;;6.57;;
56599;SDS011;51832;48.152;11.530;2023-04-06T23:04:04;9.48;;;6.50;;
56599;SDS011;51832;48.152;11.530;2023-04-06T23:09:04;11.52;;;6.43;;
56599;SDS011;51832;48.152;11.530;2023-04-06T23:14:04;8.77;;;5.80;;
56599;SDS011;51832;48.152;11.530;2023-04-06T23:19:05;10.23;;;5.80;;
56599;SDS011;51832;48.152;11.530;2023-04-06T23:24:05;8.40;;;5.93;;
56599;SDS011;51832;48.152;11.530;2023-04-06T23:29:06;7.30;;;5.15;;
56599;SDS011;51832;48.152;11.530;2023-04-06T23:34:06;8.18;;;5.40;;
56599;SDS011;51832;48.152;11.530;2023-04-06T23:39:07;11.18;;;6.63;;
56599;SDS011;51832;48.152;11.530;2023-04-06T23:44:07;8.43;;;5.60;;
56599;SDS011;51832;48.152;11.530;2023-04-06T23:49:08;7.93;;;5.82;;
56599;SDS011;51832;48.152;11.530;2023-04-06T23:54:08;8.43;;;6.18;;
56599;SDS011;51832;48.152;11.530;2023-04-06T23:59:08;8.27;;;5.25;;
